createdAt,value
2022-10-23T00:01:44.995Z,5.10
2022-10-23T00:04:14.798Z,5.63
2022-10-23T00:06:43.266Z,4.00
2022-10-23T00:09:12.816Z,4.75
2022-10-23T00:11:41.494Z,6.15
2022-10-23T00:14:09.237Z,6.35
2022-10-23T00:16:36.173Z,5.85
2022-10-23T00:19:04.165Z,5.82
2022-10-23T00:21:32.693Z,5.65
2022-10-23T00:23:59.914Z,4.80
2022-10-23T00:26:26.980Z,5.72
2022-10-23T00:28:55.262Z,4.38
2022-10-23T00:31:23.568Z,5.25
2022-10-23T00:33:51.601Z,5.00
2022-10-23T00:36:20.796Z,4.78
2022-10-23T00:38:48.704Z,4.85
2022-10-23T00:41:19.389Z,4.63
2022-10-23T00:44:23.294Z,5.75
2022-10-23T00:46:50.186Z,4.38
2022-10-23T00:49:17.726Z,4.97
2022-10-23T00:51:50.687Z,5.03
2022-10-23T00:54:25.073Z,5.80
2022-10-23T00:56:56.177Z,4.85
2022-10-23T00:59:23.593Z,4.72
2022-10-23T01:01:50.452Z,4.70
2022-10-23T01:04:17.398Z,5.70
2022-10-23T01:06:50.974Z,5.28
2022-10-23T01:09:20.652Z,5.28
2022-10-23T01:11:55.847Z,4.55
2022-10-23T01:14:31.721Z,4.90
2022-10-23T01:17:11.868Z,4.90
2022-10-23T01:22:49.962Z,5.50
2022-10-23T01:25:19.329Z,5.35
2022-10-23T01:27:50.095Z,4.90
2022-10-23T01:30:18.006Z,4.60
2022-10-23T01:32:48.461Z,5.30
2022-10-23T01:35:22.263Z,4.50
2022-10-23T01:38:00.977Z,5.80
2022-10-23T01:40:53.974Z,7.53
2022-10-23T01:43:27.359Z,4.47
2022-10-23T01:45:59.542Z,4.97
2022-10-23T01:48:32.252Z,4.88
2022-10-23T01:51:05.545Z,5.60
2022-10-23T01:53:36.305Z,4.95
2022-10-23T01:56:07.376Z,5.05
2022-10-23T01:58:36.216Z,4.65
2022-10-23T02:01:06.230Z,6.35
2022-10-23T02:06:00.404Z,7.45
2022-10-23T02:08:28.034Z,7.45
2022-10-23T02:11:13.271Z,5.90
2022-10-23T02:13:49.545Z,6.30
2022-10-23T02:16:22.119Z,5.72
2022-10-23T02:19:02.718Z,5.85
2022-10-23T02:21:50.527Z,5.00
2022-10-23T02:24:24.573Z,6.38
2022-10-23T02:26:57.167Z,5.90
2022-10-23T02:29:33.003Z,4.97
2022-10-23T02:31:59.875Z,5.40
2022-10-23T02:34:26.928Z,5.65
2022-10-23T02:36:53.995Z,5.57
2022-10-23T02:39:25.318Z,7.45
2022-10-23T02:42:01.214Z,5.10
2022-10-23T02:44:48.100Z,5.80
2022-10-23T02:47:43.130Z,4.95
2022-10-23T02:50:33.350Z,5.03
2022-10-23T02:53:21.342Z,4.80
2022-10-23T02:56:08.833Z,6.60
2022-10-23T02:58:48.495Z,5.07
2022-10-23T03:01:20.135Z,5.72
2022-10-23T03:03:54.345Z,5.05
2022-10-23T03:06:22.902Z,5.50
2022-10-23T03:09:00.041Z,6.85
2022-10-23T03:11:26.990Z,8.35
2022-10-23T03:13:53.663Z,7.60
2022-10-23T03:16:20.530Z,6.70
2022-10-23T03:18:47.346Z,6.45
2022-10-23T03:21:14.063Z,7.35
2022-10-23T03:23:40.895Z,6.97
2022-10-23T03:26:07.914Z,10.32
2022-10-23T03:28:35.636Z,10.77
2022-10-23T03:31:03.146Z,9.05
2022-10-23T03:33:31.110Z,11.82
2022-10-23T03:35:57.939Z,11.98
2022-10-23T03:38:24.811Z,11.38
2022-10-23T03:40:51.585Z,13.27
2022-10-23T03:43:18.310Z,12.60
2022-10-23T03:45:45.092Z,12.73
2022-10-23T03:48:11.919Z,11.65
2022-10-23T03:50:38.610Z,12.00
2022-10-23T03:53:05.521Z,12.80
2022-10-23T03:55:32.417Z,13.32
2022-10-23T03:57:59.165Z,15.43
2022-10-23T04:00:26.001Z,20.15
2022-10-23T04:02:52.690Z,18.25
2022-10-23T04:05:19.401Z,17.08
2022-10-23T04:07:46.216Z,17.58
2022-10-23T04:10:13.034Z,17.65
2022-10-23T04:12:39.889Z,17.50
2022-10-23T04:15:07.397Z,18.20
2022-10-23T04:17:34.227Z,22.60
2022-10-23T04:20:00.944Z,21.55
2022-10-23T04:22:28.611Z,20.02
2022-10-23T04:24:55.851Z,20.67
2022-10-23T04:27:23.181Z,22.02
2022-10-23T04:29:50.579Z,25.20
2022-10-23T04:32:18.320Z,23.90
2022-10-23T04:34:45.029Z,29.75
2022-10-23T04:37:11.760Z,25.73
2022-10-23T04:39:38.479Z,23.42
2022-10-23T04:42:05.328Z,23.65
2022-10-23T04:44:32.058Z,21.75
2022-10-23T04:46:58.826Z,22.05
2022-10-23T04:49:25.618Z,21.85
2022-10-23T04:51:52.430Z,27.92
2022-10-23T04:54:19.108Z,22.50
2022-10-23T04:56:45.837Z,22.88
2022-10-23T04:59:12.678Z,21.80
2022-10-23T05:01:39.518Z,22.30
2022-10-23T05:04:06.321Z,21.95
2022-10-23T05:06:33.204Z,19.02
2022-10-23T05:09:00.009Z,18.08
2022-10-23T05:11:26.737Z,19.35
2022-10-23T05:13:53.587Z,17.92
2022-10-23T05:16:37.219Z,18.58
2022-10-23T05:19:07.247Z,21.83
2022-10-23T05:24:02.402Z,19.75
2022-10-23T05:26:31.595Z,20.48
2022-10-23T05:28:58.363Z,22.03
2022-10-23T05:31:25.986Z,19.80
2022-10-23T05:33:55.644Z,13.45
2022-10-23T05:36:24.226Z,15.68
2022-10-23T05:38:51.328Z,12.43
2022-10-23T05:41:18.420Z,12.07
2022-10-23T05:43:46.342Z,12.10
2022-10-23T05:46:13.311Z,12.00
2022-10-23T05:48:40.120Z,13.98
2022-10-23T05:51:09.249Z,10.38
2022-10-23T05:53:38.767Z,11.60
2022-10-23T05:56:09.670Z,11.10
2022-10-23T05:58:36.490Z,10.80
2022-10-23T06:01:11.223Z,11.50
2022-10-23T06:03:38.989Z,12.57
2022-10-23T06:06:07.401Z,9.57
2022-10-23T06:08:37.418Z,10.57
2022-10-23T06:13:38.487Z,8.32
2022-10-23T06:16:18.669Z,9.13
2022-10-23T06:18:46.721Z,10.10
2022-10-23T06:21:14.342Z,11.15
2022-10-23T06:23:42.229Z,7.75
2022-10-23T06:26:12.685Z,7.63
2022-10-23T06:28:39.945Z,8.43
2022-10-23T06:31:08.681Z,10.07
2022-10-23T06:33:36.005Z,9.50
2022-10-23T06:36:03.767Z,9.05
2022-10-23T06:38:36.718Z,9.73
2022-10-23T06:41:05.147Z,9.57
2022-10-23T06:43:31.870Z,9.98
2022-10-23T06:46:04.142Z,10.35
2022-10-23T06:48:32.007Z,8.38
2022-10-23T06:50:59.730Z,12.10
2022-10-23T06:53:26.653Z,10.57
2022-10-23T06:55:55.500Z,9.25
2022-10-23T06:58:22.464Z,10.53
2022-10-23T07:00:49.285Z,9.43
2022-10-23T07:03:16.117Z,7.93
2022-10-23T07:05:44.938Z,8.90
2022-10-23T07:08:11.875Z,10.05
2022-10-23T07:10:38.812Z,9.95
2022-10-23T07:13:05.575Z,9.07
2022-10-23T07:15:32.389Z,10.45
2022-10-23T07:17:59.085Z,11.02
2022-10-23T07:20:26.107Z,9.93
2022-10-23T07:22:54.804Z,10.68
2022-10-23T07:25:22.840Z,8.95
2022-10-23T07:27:50.384Z,13.52
2022-10-23T07:30:17.683Z,11.82
2022-10-23T07:32:44.896Z,7.95
2022-10-23T07:37:45.030Z,10.77
2022-10-23T07:40:12.700Z,9.38
2022-10-23T07:42:39.473Z,10.57
2022-10-23T07:45:09.013Z,8.65
2022-10-23T07:47:35.718Z,8.07
2022-10-23T07:50:02.487Z,8.20
2022-10-23T07:52:32.088Z,7.75
2022-10-23T07:55:02.002Z,9.18
2022-10-23T07:57:28.698Z,6.93
2022-10-23T07:59:55.516Z,8.05
2022-10-23T08:02:22.343Z,9.23
2022-10-23T08:04:50.271Z,8.52
2022-10-23T08:07:17.136Z,8.30
2022-10-23T08:09:43.856Z,7.35
2022-10-23T08:12:10.565Z,10.18
2022-10-23T08:14:39.254Z,8.93
2022-10-23T08:17:09.847Z,8.85
2022-10-23T08:19:37.022Z,7.47
2022-10-23T08:22:04.098Z,7.22
2022-10-23T08:24:31.246Z,8.38
2022-10-23T08:26:58.816Z,8.90
2022-10-23T08:29:25.780Z,10.23
2022-10-23T08:31:57.516Z,8.18
2022-10-23T08:34:24.526Z,8.05
2022-10-23T08:36:51.485Z,10.90
2022-10-23T08:39:18.246Z,8.35
2022-10-23T08:41:51.217Z,9.48
2022-10-23T08:44:40.508Z,20.02
2022-10-23T08:47:11.858Z,18.90
2022-10-23T08:49:52.246Z,19.85
2022-10-23T08:52:39.625Z,23.98
2022-10-23T08:55:15.385Z,23.80
2022-10-23T08:57:51.751Z,26.42
2022-10-23T09:00:19.516Z,22.00
2022-10-23T09:02:51.549Z,25.52
2022-10-23T09:05:50.800Z,18.98
2022-10-23T09:09:12.796Z,18.45
2022-10-23T09:11:50.945Z,18.33
2022-10-23T09:14:25.169Z,17.85
2022-10-23T09:17:07.171Z,16.50
2022-10-23T09:19:33.914Z,16.27
2022-10-23T09:22:01.249Z,22.70
2022-10-23T09:24:31.977Z,21.50
2022-10-23T09:27:01.129Z,26.63
2022-10-23T09:29:36.067Z,21.40
2022-10-23T09:32:05.833Z,17.55
2022-10-23T09:34:34.991Z,16.55
2022-10-23T09:37:21.502Z,17.50
2022-10-23T09:39:48.432Z,18.92
2022-10-23T09:42:25.060Z,24.67
2022-10-23T09:44:54.176Z,23.17
2022-10-23T09:47:24.456Z,17.50
2022-10-23T09:49:57.304Z,20.88
2022-10-23T09:52:28.414Z,18.48
2022-10-23T09:54:58.636Z,18.80
2022-10-23T09:57:42.853Z,17.73
2022-10-23T10:00:16.441Z,21.08
2022-10-23T10:02:54.914Z,16.02
2022-10-23T10:05:24.957Z,15.43
2022-10-23T10:10:34.994Z,14.27
2022-10-23T10:13:19.138Z,12.65
2022-10-23T10:15:55.466Z,12.90
2022-10-23T10:18:37.333Z,8.65
2022-10-23T10:21:14.051Z,8.05
2022-10-23T10:24:00.565Z,11.23
2022-10-23T10:26:45.544Z,9.65
2022-10-23T10:29:16.670Z,10.70
2022-10-23T10:32:02.217Z,10.82
2022-10-23T10:34:46.574Z,11.57
2022-10-23T10:37:29.742Z,10.65
2022-10-23T10:40:02.401Z,10.32
2022-10-23T10:42:50.170Z,9.40
2022-10-23T10:45:30.297Z,10.95
2022-10-23T10:48:15.760Z,10.43
2022-10-23T10:51:05.914Z,10.60
2022-10-23T10:53:47.826Z,18.15
2022-10-23T10:56:18.621Z,12.27
2022-10-23T10:58:59.582Z,11.95
2022-10-23T11:01:56.747Z,10.73
2022-10-23T11:04:41.163Z,11.13
2022-10-23T11:07:13.311Z,12.43
2022-10-23T11:09:41.746Z,9.07
2022-10-23T11:12:18.058Z,9.10
2022-10-23T11:14:45.340Z,9.50
2022-10-23T11:17:25.529Z,9.20
2022-10-23T11:20:04.314Z,8.30
2022-10-23T11:22:46.901Z,8.57
2022-10-23T11:25:35.169Z,10.20
2022-10-23T11:28:19.445Z,11.82
2022-10-23T11:31:12.344Z,8.38
2022-10-23T11:33:47.790Z,8.82
2022-10-23T11:36:41.379Z,8.65
2022-10-23T11:39:21.873Z,7.82
2022-10-23T11:41:56.185Z,8.52
2022-10-23T11:44:36.768Z,7.03
2022-10-23T11:47:37.961Z,8.93
2022-10-23T11:50:09.242Z,6.65
2022-10-23T11:52:45.700Z,7.60
2022-10-23T11:55:27.866Z,6.80
2022-10-23T11:58:24.274Z,7.13
2022-10-23T12:01:25.681Z,7.60
2022-10-23T12:04:00.938Z,6.15
2022-10-23T12:06:31.493Z,6.55
2022-10-23T12:09:03.697Z,5.93
2022-10-23T12:11:47.449Z,6.47
2022-10-23T12:14:36.445Z,5.15
2022-10-23T12:17:18.946Z,6.10
2022-10-23T12:19:51.688Z,5.93
2022-10-23T12:22:20.999Z,5.65
2022-10-23T12:24:53.790Z,8.20
2022-10-23T12:27:39.965Z,5.60
2022-10-23T12:30:14.808Z,6.32
2022-10-23T12:32:47.543Z,6.15
2022-10-23T12:35:47.801Z,5.88
2022-10-23T12:38:22.440Z,5.18
2022-10-23T12:40:55.585Z,5.93
2022-10-23T12:43:25.337Z,6.25
2022-10-23T12:45:53.027Z,4.03
2022-10-23T12:48:22.613Z,5.47
2022-10-23T12:50:55.175Z,5.90
2022-10-23T12:53:23.811Z,5.63
2022-10-23T12:58:32.943Z,5.97
2022-10-23T13:01:03.128Z,6.22
2022-10-23T13:03:32.069Z,5.00
2022-10-23T13:06:00.170Z,7.10
2022-10-23T13:08:33.914Z,5.35
2022-10-23T13:11:01.065Z,6.32
2022-10-23T13:13:28.249Z,9.27
2022-10-23T13:15:54.995Z,8.63
2022-10-23T13:18:21.871Z,12.18
2022-10-23T13:20:51.719Z,10.38
2022-10-23T13:26:03.373Z,8.68
2022-10-23T13:28:44.690Z,10.23
2022-10-23T13:31:12.509Z,8.25
2022-10-23T13:33:41.560Z,8.07
2022-10-23T13:36:14.149Z,7.50
2022-10-23T13:38:46.096Z,9.73
2022-10-23T13:41:18.318Z,7.25
2022-10-23T13:43:46.628Z,7.40
2022-10-23T13:46:18.354Z,7.13
2022-10-23T13:48:45.469Z,7.90
2022-10-23T13:51:14.717Z,7.82
2022-10-23T13:53:41.833Z,6.10
2022-10-23T13:56:12.000Z,6.68
2022-10-23T13:58:39.276Z,5.60
2022-10-23T14:01:07.333Z,7.78
2022-10-23T14:03:34.141Z,5.50
2022-10-23T14:06:01.470Z,6.35
2022-10-23T14:08:28.308Z,6.38
2022-10-23T14:10:55.001Z,5.18
2022-10-23T14:13:21.789Z,5.88
2022-10-23T14:15:54.613Z,5.78
2022-10-23T14:18:21.989Z,5.80
2022-10-23T14:20:49.221Z,5.70
2022-10-23T14:23:16.063Z,5.20
2022-10-23T14:25:42.798Z,5.85
2022-10-23T14:28:10.021Z,5.80
2022-10-23T14:30:39.508Z,7.68
2022-10-23T14:33:06.285Z,8.05
2022-10-23T14:35:33.016Z,7.40
2022-10-23T14:37:59.908Z,9.25
2022-10-23T14:40:26.620Z,8.73
2022-10-23T14:42:53.322Z,9.27
2022-10-23T14:45:20.210Z,7.32
2022-10-23T14:47:47.056Z,7.13
2022-10-23T14:50:14.220Z,9.23
2022-10-23T14:52:41.055Z,7.15
2022-10-23T14:55:08.264Z,7.28
2022-10-23T14:57:35.024Z,7.80
2022-10-23T15:00:01.936Z,6.38
2022-10-23T15:02:28.601Z,7.30
2022-10-23T15:04:55.573Z,9.10
2022-10-23T15:07:22.438Z,6.75
2022-10-23T15:09:50.783Z,7.72
2022-10-23T15:12:18.198Z,7.65
2022-10-23T15:14:45.010Z,9.35
2022-10-23T15:17:15.432Z,7.63
2022-10-23T15:19:42.787Z,9.40
2022-10-23T15:22:09.855Z,9.20
2022-10-23T15:24:36.760Z,6.93
2022-10-23T15:27:03.598Z,8.23
2022-10-23T15:29:30.384Z,7.65
2022-10-23T15:32:01.572Z,6.93
2022-10-23T15:34:29.396Z,7.35
2022-10-23T15:36:57.727Z,8.45
2022-10-23T15:39:27.737Z,7.55
2022-10-23T15:44:25.177Z,6.70
2022-10-23T15:46:52.257Z,9.18
2022-10-23T15:49:19.758Z,5.80
2022-10-23T15:51:47.023Z,5.85
2022-10-23T15:54:18.467Z,6.22
2022-10-23T15:56:47.382Z,6.22
2022-10-23T15:59:14.884Z,5.65
2022-10-23T16:01:41.843Z,5.15
2022-10-23T16:04:08.840Z,5.63
2022-10-23T16:06:35.664Z,7.00
2022-10-23T16:09:02.843Z,5.78
2022-10-23T16:11:33.905Z,5.38
2022-10-23T16:14:00.845Z,5.25
2022-10-23T16:16:28.347Z,7.15
2022-10-23T16:18:55.160Z,7.15
2022-10-23T16:21:28.112Z,6.28
2022-10-23T16:23:57.406Z,5.82
2022-10-23T16:26:24.157Z,6.07
2022-10-23T16:28:55.555Z,6.78
2022-10-23T16:31:24.043Z,6.43
2022-10-23T16:33:52.532Z,5.50
2022-10-23T16:36:20.743Z,8.77
2022-10-23T16:38:47.567Z,6.60
2022-10-23T16:41:14.372Z,5.78
2022-10-23T16:43:41.150Z,6.88
2022-10-23T16:46:13.026Z,7.18
2022-10-23T16:48:40.610Z,7.90
2022-10-23T16:51:09.523Z,7.00
2022-10-23T16:53:38.377Z,5.55
2022-10-23T16:56:07.361Z,7.30
2022-10-23T16:58:34.449Z,6.10
2022-10-23T17:01:02.635Z,6.85
2022-10-23T17:03:30.298Z,6.32
2022-10-23T17:06:01.958Z,6.22
2022-10-23T17:08:29.394Z,7.13
2022-10-23T17:11:18.035Z,7.75
2022-10-23T17:13:48.359Z,7.85
2022-10-23T17:16:16.966Z,8.15
2022-10-23T17:18:44.847Z,8.85
2022-10-23T17:21:13.497Z,7.32
2022-10-23T17:23:41.028Z,9.57
2022-10-23T17:26:12.467Z,7.63
2022-10-23T17:28:42.492Z,8.77
2022-10-23T17:34:12.642Z,7.93
2022-10-23T17:36:45.943Z,6.53
2022-10-23T17:39:15.731Z,5.07
2022-10-23T17:41:42.987Z,8.05
2022-10-23T17:44:10.844Z,7.50
2022-10-23T17:46:37.757Z,7.22
2022-10-23T17:49:05.274Z,7.07
2022-10-23T17:51:34.403Z,7.53
2022-10-23T17:54:06.478Z,6.13
2022-10-23T17:56:34.636Z,6.97
2022-10-23T17:59:05.230Z,7.07
2022-10-23T18:01:32.581Z,8.55
2022-10-23T18:04:01.558Z,6.72
2022-10-23T18:06:35.366Z,8.68
2022-10-23T18:09:04.206Z,7.43
2022-10-23T18:11:37.343Z,8.00
2022-10-23T18:14:06.350Z,10.05
2022-10-23T18:16:34.727Z,9.02
2022-10-23T18:19:02.239Z,9.93
2022-10-23T18:21:29.070Z,12.38
2022-10-23T18:23:58.013Z,8.10
2022-10-23T18:26:28.040Z,10.43
2022-10-23T18:31:25.932Z,9.38
2022-10-23T18:34:12.111Z,7.22
2022-10-23T18:36:40.758Z,7.45
2022-10-23T18:39:09.909Z,6.40
2022-10-23T18:41:40.101Z,7.13
2022-10-23T18:44:07.768Z,6.57
2022-10-23T18:46:35.489Z,6.80
2022-10-23T18:49:02.500Z,8.32
2022-10-23T18:51:32.803Z,7.65
2022-10-23T18:54:05.867Z,6.60
2022-10-23T18:56:34.225Z,5.88
2022-10-23T18:59:03.211Z,7.38
2022-10-23T19:01:31.012Z,7.18
2022-10-23T19:03:59.469Z,7.10
2022-10-23T19:06:26.202Z,7.78
2022-10-23T19:08:53.161Z,9.88
2022-10-23T19:11:21.852Z,7.68
2022-10-23T19:13:48.668Z,7.38
2022-10-23T19:16:19.855Z,7.15
2022-10-23T19:18:51.451Z,9.20
2022-10-23T19:21:22.273Z,5.90
2022-10-23T19:23:49.736Z,6.88
2022-10-23T19:26:16.905Z,7.05
2022-10-23T19:28:48.477Z,5.38
2022-10-23T19:31:15.465Z,5.97
2022-10-23T19:33:42.397Z,5.80
2022-10-23T19:36:13.840Z,5.57
2022-10-23T19:38:42.263Z,5.95
2022-10-23T19:41:09.667Z,5.53
2022-10-23T19:43:37.857Z,5.55
2022-10-23T19:46:09.255Z,7.85
2022-10-23T19:48:42.670Z,6.72
2022-10-23T19:51:09.616Z,5.60
2022-10-23T19:53:36.813Z,5.28
2022-10-23T19:56:05.710Z,6.10
2022-10-23T19:58:32.630Z,6.60
2022-10-23T20:00:59.700Z,5.57
2022-10-23T20:03:26.603Z,5.93
2022-10-23T20:05:53.323Z,5.43
2022-10-23T20:08:20.029Z,6.05
2022-10-23T20:10:48.192Z,5.78
2022-10-23T20:13:20.275Z,6.72
2022-10-23T20:15:47.502Z,6.07
2022-10-23T20:18:14.378Z,5.45
2022-10-23T20:20:42.370Z,5.85
2022-10-23T20:23:09.305Z,6.30
2022-10-23T20:25:36.116Z,5.15
2022-10-23T20:28:03.883Z,7.40
2022-10-23T20:30:30.738Z,6.60
2022-10-23T20:32:57.602Z,6.40
2022-10-23T20:35:24.374Z,4.68
2022-10-23T20:37:51.047Z,5.65
2022-10-23T20:40:17.799Z,7.15
2022-10-23T20:42:44.509Z,6.40
2022-10-23T20:45:11.241Z,5.78
2022-10-23T20:47:39.104Z,7.28
2022-10-23T20:50:06.283Z,5.55
2022-10-23T20:55:05.001Z,7.55
2022-10-23T20:57:31.738Z,6.95
2022-10-23T20:59:59.408Z,5.82
2022-10-23T21:02:26.484Z,6.43
2022-10-23T21:04:53.316Z,6.03
2022-10-23T21:07:20.987Z,6.00
2022-10-23T21:09:47.828Z,6.60
2022-10-23T21:12:14.636Z,5.75
2022-10-23T21:14:41.404Z,6.20
2022-10-23T21:17:09.158Z,4.95
2022-10-23T21:19:36.687Z,4.47
2022-10-23T21:22:03.666Z,5.63
2022-10-23T21:24:30.692Z,5.63
2022-10-23T21:26:57.408Z,5.80
2022-10-23T21:29:24.112Z,5.25
2022-10-23T21:31:56.788Z,5.53
2022-10-23T21:34:25.090Z,4.28
2022-10-23T21:37:12.845Z,4.53
2022-10-23T21:39:39.057Z,7.03
2022-10-23T21:42:06.003Z,5.47
2022-10-23T21:44:32.874Z,5.05
2022-10-23T21:47:00.849Z,4.28
2022-10-23T21:49:27.570Z,4.53
2022-10-23T21:51:55.234Z,4.07
2022-10-23T21:54:22.592Z,4.93
2022-10-23T21:56:51.219Z,4.03
2022-10-23T21:59:20.907Z,4.53
2022-10-23T22:01:49.361Z,5.80
2022-10-23T22:04:18.658Z,5.55
2022-10-23T22:06:47.176Z,5.60
2022-10-23T22:09:17.672Z,4.72
2022-10-23T22:11:44.451Z,3.90
2022-10-23T22:14:11.274Z,4.72
2022-10-23T22:16:38.232Z,7.22
2022-10-23T22:19:05.239Z,5.43
2022-10-23T22:21:31.999Z,4.70
2022-10-23T22:24:00.922Z,5.30
2022-10-23T22:26:29.597Z,5.57
2022-10-23T22:28:59.193Z,4.53
2022-10-23T22:31:29.213Z,4.43
2022-10-23T22:36:23.446Z,4.35
2022-10-23T22:38:50.426Z,4.40
2022-10-23T22:41:17.689Z,6.90
2022-10-23T22:43:44.736Z,5.32
2022-10-23T22:46:19.061Z,4.97
2022-10-23T22:48:46.132Z,6.00
2022-10-23T22:51:16.021Z,6.13
2022-10-23T22:53:44.047Z,5.07
2022-10-23T22:56:14.264Z,5.53
2022-10-23T22:58:41.189Z,4.85
2022-10-23T23:01:13.857Z,8.07
2022-10-23T23:03:40.843Z,6.65
2022-10-23T23:06:09.186Z,6.55
2022-10-23T23:08:37.928Z,9.93
2022-10-23T23:11:06.019Z,7.43
2022-10-23T23:13:32.862Z,9.10
2022-10-23T23:15:59.978Z,7.72
2022-10-23T23:18:27.425Z,7.57
2022-10-23T23:20:54.259Z,7.60
2022-10-23T23:23:21.365Z,7.93
2022-10-23T23:25:49.997Z,8.27
2022-10-23T23:28:20.574Z,6.83
2022-10-23T23:33:16.667Z,6.35
2022-10-23T23:35:46.036Z,7.43
2022-10-23T23:38:13.745Z,6.07
2022-10-23T23:40:40.557Z,6.57
2022-10-23T23:43:07.369Z,6.28
2022-10-23T23:45:34.261Z,5.15
2022-10-23T23:48:00.999Z,8.95
2022-10-23T23:50:28.165Z,8.23
2022-10-23T23:52:55.048Z,7.15
2022-10-23T23:55:22.006Z,6.15
2022-10-23T23:57:48.702Z,5.55
